地図

経路データ

SID SEASON NUMBER BASIN SUBBASIN NAME ISO_TIME NATURE LAT LON WMO_WIND WMO_PRES WMO_AGENCY TRACK_TYPE DIST2LAND LANDFALL IFLAG USA_AGENCY USA_ATCF_ID USA_LAT USA_LON USA_RECORD USA_STATUS USA_WIND USA_PRES USA_SSHS USA_R34_NE USA_R34_SE USA_R34_SW USA_R34_NW USA_R50_NE USA_R50_SE USA_R50_SW USA_R50_NW USA_R64_NE USA_R64_SE USA_R64_SW USA_R64_NW USA_POCI USA_ROCI USA_RMW USA_EYE TOKYO_LAT TOKYO_LON TOKYO_GRADE TOKYO_WIND TOKYO_PRES TOKYO_R50_DIR TOKYO_R50_LONG TOKYO_R50_SHORT TOKYO_R30_DIR TOKYO_R30_LONG TOKYO_R30_SHORT TOKYO_LAND CMA_LAT CMA_LON CMA_CAT CMA_WIND CMA_PRES HKO_LAT HKO_LON HKO_CAT HKO_WIND HKO_PRES NEWDELHI_LAT NEWDELHI_LON NEWDELHI_GRADE NEWDELHI_WIND NEWDELHI_PRES NEWDELHI_CI NEWDELHI_DP NEWDELHI_POCI REUNION_LAT REUNION_LON REUNION_TYPE REUNION_WIND REUNION_PRES REUNION_TNUM REUNION_CI REUNION_RMW REUNION_R34_NE REUNION_R34_SE REUNION_R34_SW REUNION_R34_NW REUNION_R50_NE REUNION_R50_SE REUNION_R50_SW REUNION_R50_NW REUNION_R64_NE REUNION_R64_SE REUNION_R64_SW REUNION_R64_NW BOM_LAT BOM_LON BOM_TYPE BOM_WIND BOM_PRES BOM_TNUM BOM_CI BOM_RMW BOM_R34_NE BOM_R34_SE BOM_R34_SW BOM_R34_NW BOM_R50_NE BOM_R50_SE BOM_R50_SW BOM_R50_NW BOM_R64_NE BOM_R64_SE BOM_R64_SW BOM_R64_NW BOM_ROCI BOM_POCI BOM_EYE BOM_POS_METHOD BOM_PRES_METHOD NADI_LAT NADI_LON NADI_CAT NADI_WIND NADI_PRES WELLINGTON_LAT WELLINGTON_LON WELLINGTON_WIND WELLINGTON_PRES DS824_LAT DS824_LON DS824_STAGE DS824_WIND DS824_PRES TD9636_LAT TD9636_LON TD9636_STAGE TD9636_WIND TD9636_PRES TD9635_LAT TD9635_LON TD9635_WIND TD9635_PRES TD9635_ROCI NEUMANN_LAT NEUMANN_LON NEUMANN_CLASS NEUMANN_WIND NEUMANN_PRES MLC_LAT MLC_LON MLC_CLASS MLC_WIND MLC_PRES USA_GUST BOM_GUST BOM_GUST_PER REUNION_GUST REUNION_GUST_PER USA_SEAHGT USA_SEARAD_NE USA_SEARAD_SE USA_SEARAD_SW USA_SEARAD_NW STORM_SPEED STORM_DIR
1906310N10140 1906 54 WP MM NOT_NAMED 1906-11-05 16:00:00 NR 10.2000 139.500 main 1295 1288 __________O___ -1 10.2000 139.500 7 11 285
1906310N10140 1906 54 WP MM NOT_NAMED 1906-11-05 18:00:00 NR 10.2919 139.156 main 1295 1287 __________P___ -1 10.2919 139.156 7 11 285
1906310N10140 1906 54 WP MM NOT_NAMED 1906-11-05 21:00:00 NR 10.4324 138.644 main 1287 1287 __________P___ -1 10.4324 138.644 7 10 286
1906310N10140 1906 54 WP MM NOT_NAMED 1906-11-06 00:00:00 NR 10.5808 138.142 main 1296 1264 __________P___ -1 10.5808 138.142 7 10 288
1906310N10140 1906 54 WP MM NOT_NAMED 1906-11-06 03:00:00 NR 10.7423 137.657 main 1264 1246 __________P___ -1 10.7423 137.657 7 10 289
1906310N10140 1906 54 WP MM NOT_NAMED 1906-11-06 04:00:00 NR 10.8000 137.500 main 1246 1217 __________O___ -1 10.8000 137.500 7 10 292
1906310N10140 1906 54 WP MM NOT_NAMED 1906-11-06 06:00:00 NR 10.9217 137.194 main 1217 1179 __________P___ -1 10.9217 137.194 7 10 293
1906310N10140 1906 54 WP MM NOT_NAMED 1906-11-06 09:00:00 NR 11.1171 136.754 main 1179 1130 __________P___ -1 11.1171 136.754 7 9 295
1906310N10140 1906 54 WP MM NOT_NAMED 1906-11-06 12:00:00 NR 11.3222 136.334 main 1130 1092 __________P___ -1 11.3222 136.334 7 9 297
1906310N10140 1906 54 WP MM NOT_NAMED 1906-11-06 15:00:00 NR 11.5308 135.931 main 1092 1084 __________P___ -1 11.5308 135.931 7 9 298
1906310N10140 1906 54 WP MM NOT_NAMED 1906-11-06 16:00:00 NR 11.6000 135.800 main 1084 1055 __________O___ -1 11.6000 135.800 7 9 298
1906310N10140 1906 54 WP MM NOT_NAMED 1906-11-06 18:00:00 NR 11.7305 135.541 main 1055 1029 __________P___ -1 11.7305 135.541 7 8 298
1906310N10140 1906 54 WP MM NOT_NAMED 1906-11-06 21:00:00 NR 11.9263 135.165 main 1029 988 __________P___ -1 11.9263 135.165 7 8 298
1906310N10140 1906 54 WP MM NOT_NAMED 1906-11-07 00:00:00 NR 12.1251 134.797 main 988 948 __________P___ -1 12.1251 134.797 7 8 299
1906310N10140 1906 54 WP MM NOT_NAMED 1906-11-07 03:00:00 NR 12.3299 134.426 main 948 939 __________P___ -1 12.3299 134.426 7 8 300
1906310N10140 1906 54 WP MM NOT_NAMED 1906-11-07 04:00:00 NR 12.4000 134.300 main 939 908 __________O___ -1 12.4000 134.300 7 9 298
1906310N10140 1906 54 WP MM NOT_NAMED 1906-11-07 06:00:00 NR 12.5337 134.039 main 908 870 __________P___ -1 12.5337 134.039 7 9 298
1906310N10140 1906 54 WP MM NOT_NAMED 1906-11-07 09:00:00 NR 12.7404 133.641 main 870 835 __________P___ -1 12.7404 133.641 7 9 299
1906310N10140 1906 54 WP MM NOT_NAMED 1906-11-07 12:00:00 NR 12.9628 133.238 main 835 800 __________P___ -1 12.9628 133.238 7 9 301
1906310N10140 1906 54 WP MM NOT_NAMED 1906-11-07 15:00:00 NR 13.2103 132.834 main 800 790 __________P___ -1 13.2103 132.834 7 9 303
1906310N10140 1906 54 WP MM NOT_NAMED 1906-11-07 16:00:00 NR 13.3000 132.700 main 790 762 __________O___ -1 13.3000 132.700 7 10 306
1906310N10140 1906 54 WP MM NOT_NAMED 1906-11-07 18:00:00 NR 13.4991 132.420 main 762 727 __________P___ -1 13.4991 132.420 7 10 308
1906310N10140 1906 54 WP MM NOT_NAMED 1906-11-07 21:00:00 NR 13.8231 132.001 main 727 694 __________P___ -1 13.8231 132.001 7 10 310
1906310N10140 1906 54 WP MM NOT_NAMED 1906-11-08 00:00:00 NR 14.1608 131.594 main 697 668 __________P___ -1 14.1608 131.594 7 10 311
1906310N10140 1906 54 WP MM NOT_NAMED 1906-11-08 03:00:00 NR 14.4935 131.217 main 668 662 __________P___ -1 14.4935 131.217 7 10 313
1906310N10140 1906 54 WP MM NOT_NAMED 1906-11-08 04:00:00 NR 14.6000 131.100 main 662 647 __________O___ -1 14.6000 131.100 7 9 313
1906310N10140 1906 54 WP MM NOT_NAMED 1906-11-08 06:00:00 NR 14.7971 130.885 main 652 634 __________P___ -1 14.7971 130.885 7 8 315
1906310N10140 1906 54 WP MM NOT_NAMED 1906-11-08 09:00:00 NR 15.0805 130.595 main 639 624 __________P___ -1 15.0805 130.595 7 8 316
1906310N10140 1906 54 WP MM NOT_NAMED 1906-11-08 12:00:00 NR 15.3518 130.331 main 630 621 __________P___ -1 15.3518 130.331 7 7 317
1906310N10140 1906 54 WP MM NOT_NAMED 1906-11-08 15:00:00 NR 15.6141 130.082 main 625 624 __________P___ -1 15.6141 130.082 7 7 318
1906310N10140 1906 54 WP MM NOT_NAMED 1906-11-08 16:00:00 NR 15.7000 130.000 main 624 614 __________O___ -1 15.7000 130.000 7 7 315
1906310N10140 1906 54 WP MM NOT_NAMED 1906-11-08 18:00:00 NR 15.8592 129.827 main 621 606 __________P___ -1 15.8592 129.827 7 7 314
1906310N10140 1906 54 WP MM NOT_NAMED 1906-11-08 21:00:00 NR 16.0914 129.575 main 610 590 __________P___ -1 16.0914 129.575 7 7 315
1906310N10140 1906 54 WP MM NOT_NAMED 1906-11-09 00:00:00 NR 16.3325 129.327 main 590 582 __________P___ -1 16.3325 129.327 7 7 317
1906310N10140 1906 54 WP MM NOT_NAMED 1906-11-09 03:00:00 NR 16.6011 129.082 main 587 578 __________P___ -1 16.6011 129.082 7 7 320
1906310N10140 1906 54 WP MM NOT_NAMED 1906-11-09 04:00:00 NR 16.7000 129.000 main 584 579 __________O___ -1 16.7000 129.000 7 8 323
1906310N10140 1906 54 WP MM NOT_NAMED 1906-11-09 06:00:00 NR 16.9188 128.828 main 579 576 __________P___ -1 16.9188 128.828 7 9 325
1906310N10140 1906 54 WP MM NOT_NAMED 1906-11-09 09:00:00 NR 17.2786 128.570 main 589 581 __________P___ -1 17.2786 128.570 7 9 327
1906310N10140 1906 54 WP MM NOT_NAMED 1906-11-09 12:00:00 NR 17.6650 128.318 main 595 595 __________P___ -1 17.6650 128.318 7 9 329
1906310N10140 1906 54 WP MM NOT_NAMED 1906-11-09 15:00:00 NR 18.0655 128.077 main 606 596 __________P___ -1 18.0655 128.077 7 9 331
1906310N10140 1906 54 WP MM NOT_NAMED 1906-11-09 16:00:00 NR 18.2000 128.000 main 598 580 __________O___ -1 18.2000 128.000 7 9 332
1906310N10140 1906 54 WP MM NOT_NAMED 1906-11-09 18:00:00 NR 18.4740 127.845 main 580 560 __________P___ -1 18.4740 127.845 7 9 333
1906310N10140 1906 54 WP MM NOT_NAMED 1906-11-09 21:00:00 NR 18.8917 127.624 main 561 546 __________P___ -1 18.8917 127.624 7 9 334
1906310N10140 1906 54 WP MM NOT_NAMED 1906-11-10 00:00:00 NR 19.3007 127.424 main 546 540 __________P___ -1 19.3007 127.424 7 9 336
1906310N10140 1906 54 WP MM NOT_NAMED 1906-11-10 03:00:00 NR 19.6822 127.251 main 545 535 __________P___ -1 19.6822 127.251 7 8 337
1906310N10140 1906 54 WP MM NOT_NAMED 1906-11-10 04:00:00 NR 19.8000 127.200 main 538 531 __________O___ -1 19.8000 127.200 7 7 336
1906310N10140 1906 54 WP MM NOT_NAMED 1906-11-10 06:00:00 NR 20.0144 127.100 main 534 528 __________P___ -1 20.0144 127.100 7 7 337
1906310N10140 1906 54 WP MM NOT_NAMED 1906-11-10 09:00:00 NR 20.3046 126.975 main 536 531 __________P___ -1 20.3046 126.975 7 6 340
1906310N10140 1906 54 WP MM NOT_NAMED 1906-11-10 12:00:00 NR 20.5683 126.880 main 541 537 __________P___ -1 20.5683 126.880 7 5 344
1906310N10140 1906 54 WP MM NOT_NAMED 1906-11-10 15:00:00 NR 20.8178 126.815 main 542 542 __________P___ -1 20.8178 126.815 7 5 347
1906310N10140 1906 54 WP MM NOT_NAMED 1906-11-10 16:00:00 NR 20.9000 126.800 main 547 547 __________O___ -1 20.9000 126.800 7 5 350
1906310N10140 1906 54 WP MM NOT_NAMED 1906-11-10 18:00:00 NR 21.0671 126.772 main 559 559 __________P___ -1 21.0671 126.772 7 5 355
1906310N10140 1906 54 WP MM NOT_NAMED 1906-11-10 21:00:00 NR 21.3113 126.755 main 571 571 __________P___ -1 21.3113 126.755 7 5 358
1906310N10140 1906 54 WP MM NOT_NAMED 1906-11-11 00:00:00 NR 21.5563 126.762 main 579 573 __________P___ -1 21.5563 126.762 7 5 5
1906310N10140 1906 54 WP MM NOT_NAMED 1906-11-11 03:00:00 NR 21.8112 126.788 main 573 570 __________P___ -1 21.8112 126.788 7 5 5
1906310N10140 1906 54 WP MM NOT_NAMED 1906-11-11 04:00:00 NR 21.9000 126.800 main 570 565 __________O___ -1 21.9000 126.800 3 6 1
1906310N10140 1906 54 WP MM NOT_NAMED 1906-11-11 06:00:00 NR 22.0964 126.817 main 565 551 __________P___ -1 22.0964 126.817 3 6 6
1906310N10140 1906 54 WP MM NOT_NAMED 1906-11-11 09:00:00 NR 22.4039 126.854 main 561 547 __________P___ -1 22.4039 126.854 3 6 8
1906310N10140 1906 54 WP MM NOT_NAMED 1906-11-11 12:00:00 NR 22.7128 126.907 main 547 539 __________P___ -1 22.7128 126.907 3 6 11
1906310N10140 1906 54 WP MM NOT_NAMED 1906-11-11 15:00:00 NR 23.0076 126.974 main 545 541 __________P___ -1 23.0076 126.974 3 6 13
1906310N10140 1906 54 WP MM NOT_NAMED 1906-11-11 16:00:00 NR 23.1000 127.000 main 541 535 __________O___ -1 23.1000 127.000 4 5 15
1906310N10140 1906 54 WP MM NOT_NAMED 1906-11-11 18:00:00 NR 23.2645 127.045 main 535 535 __________P___ -1 23.2645 127.045 4 5 16
1906310N10140 1906 54 WP MM NOT_NAMED 1906-11-11 21:00:00 NR 23.4922 127.125 main 539 537 __________P___ -1 23.4922 127.125 4 5 20
1906310N10140 1906 54 WP MM NOT_NAMED 1906-11-12 00:00:00 NR 23.7083 127.225 main 545 543 __________P___ -1 23.7083 127.225 4 5 25
1906310N10140 1906 54 WP MM NOT_NAMED 1906-11-12 03:00:00 NR 23.9253 127.351 main 559 557 __________P___ -1 23.9253 127.351 4 5 28
1906310N10140 1906 54 WP MM NOT_NAMED 1906-11-12 04:00:00 NR 24.0000 127.400 main 557 554 __________O___ -1 24.0000 127.400 4 6 31
1906310N10140 1906 54 WP MM NOT_NAMED 1906-11-12 06:00:00 NR 24.1689 127.516 main 562 562 __________P___ -1 24.1689 127.516 4 6 34
1906310N10140 1906 54 WP MM NOT_NAMED 1906-11-12 09:00:00 NR 24.4287 127.714 main 579 577 __________P___ -1 24.4287 127.714 4 6 36
1906310N10140 1906 54 WP MM NOT_NAMED 1906-11-12 12:00:00 NR 24.6851 127.927 main 595 595 __________P___ -1 24.6851 127.927 4 6 38
1906310N10140 1906 54 WP MM NOT_NAMED 1906-11-12 15:00:00 NR 24.9255 128.135 main 614 614 __________P___ -1 24.9255 128.135 4 6 38
1906310N10140 1906 54 WP MM NOT_NAMED 1906-11-12 16:00:00 NR 25.0000 128.200 main 624 624 __________O___ -1 25.0000 128.200 4 5 38
1906310N10140 1906 54 WP MM NOT_NAMED 1906-11-12 18:00:00 NR 25.1387 128.321 main 634 634 __________P___ -1 25.1387 128.321 4 5 38
1906310N10140 1906 54 WP MM NOT_NAMED 1906-11-12 21:00:00 NR 25.3249 128.481 main 654 647 __________P___ -1 25.3249 128.481 4 4 38
1906310N10140 1906 54 WP MM NOT_NAMED 1906-11-13 00:00:00 NR 25.4923 128.624 main 647 630 __________P___ -1 25.4923 128.624 4 4 38
1906310N10140 1906 54 WP MM NOT_NAMED 1906-11-13 03:00:00 NR 25.6488 128.757 main 630 620 __________P___ -1 25.6488 128.757 4 4 38
1906310N10140 1906 54 WP MM NOT_NAMED 1906-11-13 04:00:00 NR 25.7000 128.800 main 620 __________O___ -1 25.7000 128.800 4 4 42

デジタル台風データ・検索

IBTrACS Databaseについて

本データベースは、米国NOAAが公開する1842年以降の世界の熱帯低気圧のベストトラックデータアーカイブInternational Best Track Archive for Climate Stewardship (IBTrACS)を、ウェブで閲覧しやすい形式に変換したものです。

最終更新日:2021-12-03